createdAt,value
2023-02-24T00:02:49.264Z,5.20
2023-02-24T00:05:52.094Z,4.47
2023-02-24T00:08:55.396Z,4.88
2023-02-24T00:12:01.354Z,5.03
2023-02-24T00:15:05.193Z,5.60
2023-02-24T00:18:08.452Z,5.10
2023-02-24T00:21:17.258Z,4.80
2023-02-24T00:24:25.589Z,5.38
2023-02-24T00:27:29.503Z,5.10
2023-02-24T00:30:39.329Z,5.05
2023-02-24T00:33:44.134Z,5.32
2023-02-24T00:36:48.723Z,4.70
2023-02-24T00:39:57.654Z,5.05
2023-02-24T00:43:00.456Z,5.30
2023-02-24T00:46:11.510Z,5.22
2023-02-24T00:49:18.685Z,4.82
2023-02-24T00:52:21.596Z,5.13
2023-02-24T00:55:24.382Z,5.70
2023-02-24T00:58:30.035Z,5.00
2023-02-24T01:01:34.794Z,4.82
2023-02-24T01:04:37.942Z,4.68
2023-02-24T01:07:42.397Z,5.10
2023-02-24T01:11:05.968Z,5.10
2023-02-24T01:14:13.888Z,5.43
2023-02-24T01:17:18.526Z,4.70
2023-02-24T01:20:22.272Z,4.75
2023-02-24T01:23:26.225Z,5.00
2023-02-24T01:26:31.106Z,4.53
2023-02-24T01:29:39.557Z,4.97
2023-02-24T01:32:44.498Z,4.72
2023-02-24T01:35:48.331Z,5.00
2023-02-24T01:38:52.369Z,4.47
2023-02-24T01:41:55.238Z,5.10
2023-02-24T01:45:06.849Z,5.40
2023-02-24T01:48:12.635Z,4.93
2023-02-24T01:51:21.414Z,4.80
2023-02-24T01:54:28.867Z,5.07
2023-02-24T01:57:35.675Z,4.10
2023-02-24T02:00:45.428Z,5.10
2023-02-24T02:04:21.759Z,4.68
2023-02-24T02:07:26.989Z,4.55
2023-02-24T02:10:31.936Z,4.87
2023-02-24T02:13:36.254Z,4.90
2023-02-24T02:17:00.450Z,5.40
2023-02-24T02:20:39.730Z,4.78
2023-02-24T02:23:50.668Z,4.38
2023-02-24T02:26:58.107Z,4.33
2023-02-24T02:30:09.417Z,4.50
2023-02-24T02:33:22.221Z,4.70
2023-02-24T02:36:31.582Z,4.43
2023-02-24T02:39:58.998Z,4.88
2023-02-24T02:43:20.028Z,4.40
2023-02-24T02:46:51.826Z,4.40
2023-02-24T02:50:03.438Z,4.90
2023-02-24T02:53:27.203Z,4.40
2023-02-24T02:56:37.668Z,4.68
2023-02-24T02:59:49.501Z,4.50
2023-02-24T03:02:58.514Z,4.80
2023-02-24T03:06:12.313Z,4.70
2023-02-24T03:09:23.070Z,4.38
2023-02-24T03:12:29.658Z,5.00
2023-02-24T03:15:34.274Z,4.67
2023-02-24T03:18:45.427Z,4.28
2023-02-24T03:22:04.455Z,3.92
2023-02-24T03:25:08.989Z,4.45
2023-02-24T03:28:37.702Z,4.03
2023-02-24T03:31:54.347Z,4.17
2023-02-24T03:35:19.921Z,4.22
2023-02-24T03:38:24.596Z,4.97
2023-02-24T03:41:38.857Z,4.47
2023-02-24T03:44:43.401Z,4.53
2023-02-24T03:47:54.351Z,4.50
2023-02-24T03:50:59.576Z,4.22
2023-02-24T03:54:20.829Z,4.07
2023-02-24T03:58:02.618Z,4.15
2023-02-24T04:01:22.069Z,4.13
2023-02-24T04:04:37.971Z,4.47
2023-02-24T04:08:07.456Z,4.35
2023-02-24T04:11:27.711Z,4.53
2023-02-24T04:14:37.700Z,4.20
2023-02-24T04:17:46.546Z,4.60
2023-02-24T04:20:53.539Z,4.57
2023-02-24T04:24:01.384Z,4.30
2023-02-24T04:27:06.657Z,4.43
2023-02-24T04:30:13.815Z,4.43
2023-02-24T04:33:18.028Z,4.55
2023-02-24T04:36:22.270Z,4.13
2023-02-24T04:39:26.088Z,4.32
2023-02-24T04:42:32.086Z,4.93
2023-02-24T04:45:34.932Z,4.85
2023-02-24T04:48:39.162Z,4.50
2023-02-24T04:51:44.935Z,4.93
2023-02-24T04:54:48.238Z,4.97
2023-02-24T04:57:54.025Z,4.78
2023-02-24T05:00:56.925Z,4.32
2023-02-24T05:04:00.410Z,4.78
2023-02-24T05:07:03.397Z,4.30
2023-02-24T05:10:07.182Z,4.55
2023-02-24T05:13:15.028Z,4.50
2023-02-24T05:16:20.587Z,4.60
2023-02-24T05:19:42.415Z,5.30
2023-02-24T05:22:45.248Z,4.67
2023-02-24T05:25:48.792Z,4.93
2023-02-24T05:28:54.053Z,4.15
2023-02-24T05:32:00.968Z,4.97
2023-02-24T05:35:04.674Z,5.05
2023-02-24T05:38:08.386Z,4.60
2023-02-24T05:41:23.891Z,4.72
2023-02-24T05:44:27.356Z,5.07
2023-02-24T05:47:30.244Z,5.45
2023-02-24T05:50:33.575Z,5.68
2023-02-24T05:53:37.112Z,4.83
2023-02-24T05:56:44.727Z,5.38
2023-02-24T05:59:51.075Z,4.63
2023-02-24T06:02:53.940Z,5.50
2023-02-24T06:06:05.662Z,5.78
2023-02-24T06:09:12.807Z,5.40
2023-02-24T06:12:16.518Z,5.55
2023-02-24T06:15:19.269Z,5.53
2023-02-24T06:18:22.163Z,5.47
2023-02-24T06:21:26.793Z,5.45
2023-02-24T06:24:32.813Z,5.43
2023-02-24T06:27:39.199Z,5.22
2023-02-24T06:30:41.985Z,5.35
2023-02-24T06:33:45.229Z,5.65
2023-02-24T06:36:49.182Z,5.13
2023-02-24T06:39:52.104Z,5.67
2023-02-24T06:42:55.631Z,5.63
2023-02-24T06:45:59.608Z,6.03
2023-02-24T06:49:03.138Z,5.68
2023-02-24T06:52:06.141Z,6.03
2023-02-24T06:55:28.188Z,6.00
2023-02-24T06:58:31.794Z,6.82
2023-02-24T07:01:34.910Z,8.13
2023-02-24T07:04:44.279Z,9.00
2023-02-24T07:07:47.194Z,8.45
2023-02-24T07:10:54.607Z,8.70
2023-02-24T07:13:58.804Z,8.85
2023-02-24T07:17:01.689Z,9.65
2023-02-24T07:20:12.363Z,9.43
2023-02-24T07:23:18.651Z,8.88
2023-02-24T07:26:24.435Z,8.57
2023-02-24T07:29:29.512Z,8.20
2023-02-24T07:32:32.830Z,8.27
2023-02-24T07:35:41.588Z,8.05
2023-02-24T07:38:45.748Z,9.02
2023-02-24T07:41:49.924Z,8.50
2023-02-24T07:44:55.721Z,7.47
2023-02-24T07:48:01.848Z,8.30
2023-02-24T07:51:09.538Z,8.45
2023-02-24T07:54:13.064Z,8.52
2023-02-24T07:57:15.758Z,8.07
2023-02-24T08:00:19.598Z,8.88
2023-02-24T08:03:23.997Z,8.50
2023-02-24T08:06:38.286Z,7.50
2023-02-24T08:10:07.440Z,8.23
2023-02-24T08:13:12.175Z,8.27
2023-02-24T08:16:15.081Z,7.82
2023-02-24T08:19:23.430Z,7.45
2023-02-24T08:22:27.815Z,7.72
2023-02-24T08:25:44.614Z,7.88
2023-02-24T08:28:50.703Z,6.97
2023-02-24T08:31:53.985Z,7.05
2023-02-24T08:35:03.132Z,7.38
2023-02-24T08:38:10.123Z,6.75
2023-02-24T08:41:18.401Z,7.32
2023-02-24T08:44:21.798Z,7.03
2023-02-24T08:47:31.208Z,7.10
2023-02-24T08:50:34.640Z,7.03
2023-02-24T08:53:43.083Z,7.13
2023-02-24T08:56:56.286Z,6.60
2023-02-24T08:59:59.276Z,6.40
2023-02-24T09:03:08.406Z,6.18
2023-02-24T09:06:11.157Z,7.00
2023-02-24T09:09:23.057Z,7.13
2023-02-24T09:12:29.265Z,6.53
2023-02-24T09:15:41.540Z,7.20
2023-02-24T09:18:44.810Z,6.60
2023-02-24T09:21:50.516Z,6.53
2023-02-24T09:25:13.184Z,6.13
2023-02-24T09:28:25.546Z,6.18
2023-02-24T09:31:40.991Z,6.47
2023-02-24T09:34:44.897Z,6.05
2023-02-24T09:37:47.668Z,5.88
2023-02-24T09:40:50.864Z,5.70
2023-02-24T09:44:00.101Z,5.78
2023-02-24T09:47:31.522Z,5.93
2023-02-24T09:51:02.244Z,6.07
2023-02-24T09:54:15.648Z,5.30
2023-02-24T09:57:31.936Z,5.45
2023-02-24T10:00:47.438Z,5.82
2023-02-24T10:04:20.755Z,5.83
2023-02-24T10:07:39.656Z,5.47
2023-02-24T10:11:00.984Z,5.72
2023-02-24T10:14:07.402Z,5.75
2023-02-24T10:17:25.538Z,5.93
2023-02-24T10:20:44.789Z,5.17
2023-02-24T10:24:14.983Z,5.45
2023-02-24T10:27:24.237Z,5.45
2023-02-24T10:30:47.348Z,5.40
2023-02-24T10:33:55.786Z,4.90
2023-02-24T10:37:28.678Z,5.53
2023-02-24T10:40:46.958Z,5.00
2023-02-24T10:43:57.016Z,5.40
2023-02-24T10:47:11.792Z,5.32
2023-02-24T10:50:30.404Z,5.03
2023-02-24T10:53:37.296Z,5.20
2023-02-24T10:56:44.960Z,4.95
2023-02-24T11:00:11.945Z,5.28
2023-02-24T11:03:32.648Z,5.00
2023-02-24T11:06:55.829Z,5.28
2023-02-24T11:10:11.491Z,4.70
2023-02-24T11:13:36.518Z,5.10
2023-02-24T11:17:12.628Z,4.93
2023-02-24T11:20:33.618Z,4.63
2023-02-24T11:23:51.426Z,4.70
2023-02-24T11:26:56.683Z,4.43
2023-02-24T11:30:11.323Z,4.45
2023-02-24T11:34:08.011Z,4.82
2023-02-24T11:37:38.095Z,4.43
2023-02-24T11:40:45.298Z,4.55
2023-02-24T11:43:59.846Z,5.00
2023-02-24T11:47:11.597Z,4.53
2023-02-24T11:50:26.566Z,4.97
2023-02-24T11:53:51.074Z,4.53
2023-02-24T11:56:59.345Z,4.88
2023-02-24T12:00:13.725Z,4.40
2023-02-24T12:03:41.166Z,4.50
2023-02-24T12:06:57.668Z,4.28
2023-02-24T12:10:16.982Z,4.20
2023-02-24T12:13:40.343Z,4.88
2023-02-24T12:16:48.668Z,4.47
2023-02-24T12:20:06.188Z,4.05
2023-02-24T12:23:18.606Z,4.78
2023-02-24T12:26:42.868Z,4.40
2023-02-24T12:30:06.561Z,4.55
2023-02-24T12:33:28.127Z,4.90
2023-02-24T12:36:57.014Z,4.93
2023-02-24T12:40:14.754Z,4.60
2023-02-24T12:43:29.576Z,4.60
2023-02-24T12:46:40.196Z,4.50
2023-02-24T12:49:55.531Z,4.67
2023-02-24T12:53:07.005Z,4.05
2023-02-24T12:56:20.297Z,4.47
2023-02-24T12:59:28.155Z,3.67
2023-02-24T13:02:39.971Z,4.55
2023-02-24T13:06:26.152Z,4.07
2023-02-24T13:10:05.285Z,4.13
2023-02-24T13:13:26.961Z,4.57
2023-02-24T13:16:35.003Z,4.57
2023-02-24T13:19:40.187Z,4.45
2023-02-24T13:22:43.786Z,4.07
2023-02-24T13:26:12.858Z,4.40
2023-02-24T13:29:16.688Z,4.07
2023-02-24T13:32:35.263Z,3.95
2023-02-24T13:35:38.125Z,4.70
2023-02-24T13:38:46.623Z,3.97
2023-02-24T13:41:49.742Z,3.92
2023-02-24T13:45:15.340Z,4.00
2023-02-24T13:48:44.728Z,3.85
2023-02-24T13:51:55.953Z,4.85
2023-02-24T13:55:11.486Z,4.00
2023-02-24T13:58:27.937Z,4.07
2023-02-24T14:01:33.017Z,4.40
2023-02-24T14:04:39.573Z,4.10
2023-02-24T14:07:42.635Z,4.50
2023-02-24T14:11:04.737Z,5.03
2023-02-24T14:14:18.562Z,4.07
2023-02-24T14:17:28.408Z,4.35
2023-02-24T14:20:33.444Z,4.80
2023-02-24T14:23:37.750Z,4.38
2023-02-24T14:26:49.075Z,4.13
2023-02-24T14:29:53.140Z,4.22
2023-02-24T14:32:56.084Z,4.00
2023-02-24T14:36:00.373Z,4.38
2023-02-24T14:39:16.278Z,3.78
2023-02-24T14:42:20.723Z,3.80
2023-02-24T14:45:28.033Z,3.97
2023-02-24T14:48:32.204Z,4.25
2023-02-24T14:51:36.720Z,3.60
2023-02-24T14:54:54.424Z,3.70
2023-02-24T14:58:07.080Z,3.80
2023-02-24T15:01:24.435Z,3.85
2023-02-24T15:04:37.678Z,4.38
2023-02-24T15:07:45.356Z,3.85
2023-02-24T15:10:48.797Z,4.10
2023-02-24T15:13:55.247Z,4.73
2023-02-24T15:17:02.102Z,4.00
2023-02-24T15:20:28.590Z,4.10
2023-02-24T15:23:38.284Z,3.85
2023-02-24T15:26:41.403Z,4.10
2023-02-24T15:29:45.937Z,4.80
2023-02-24T15:33:19.371Z,4.38
2023-02-24T15:36:25.585Z,4.53
2023-02-24T15:39:31.425Z,4.35
2023-02-24T15:42:36.152Z,4.43
2023-02-24T15:45:40.207Z,3.60
2023-02-24T15:48:44.785Z,3.33
2023-02-24T15:51:50.296Z,4.18
2023-02-24T15:55:05.260Z,3.90
2023-02-24T15:58:17.941Z,4.18
2023-02-24T16:01:21.736Z,4.17
2023-02-24T16:04:27.349Z,4.10
2023-02-24T16:07:33.918Z,3.97
2023-02-24T16:10:37.059Z,3.35
2023-02-24T16:13:41.548Z,4.50
2023-02-24T16:16:45.504Z,4.57
2023-02-24T16:19:49.168Z,3.92
2023-02-24T16:22:51.950Z,3.80
2023-02-24T16:25:59.779Z,3.78
2023-02-24T16:29:03.171Z,3.25
2023-02-24T16:32:06.829Z,3.43
2023-02-24T16:35:11.640Z,3.90
2023-02-24T16:38:18.487Z,3.83
2023-02-24T16:41:22.394Z,4.13
2023-02-24T16:44:25.510Z,3.67
2023-02-24T16:47:28.763Z,3.70
2023-02-24T16:50:43.393Z,3.67
2023-02-24T16:53:46.732Z,3.55
2023-02-24T16:56:50.200Z,3.90
2023-02-24T16:59:53.356Z,3.58
2023-02-24T17:02:56.665Z,3.80
2023-02-24T17:05:59.596Z,3.75
2023-02-24T17:09:02.635Z,3.63
2023-02-24T17:12:06.035Z,3.95
2023-02-24T17:15:16.790Z,3.88
2023-02-24T17:18:21.452Z,4.03
2023-02-24T17:21:25.106Z,4.03
2023-02-24T17:24:30.138Z,4.20
2023-02-24T17:27:34.891Z,3.67
2023-02-24T17:30:39.955Z,3.92
2023-02-24T17:33:44.141Z,3.90
2023-02-24T17:36:47.269Z,3.92
2023-02-24T17:39:51.504Z,3.65
2023-02-24T17:42:54.368Z,3.55
2023-02-24T17:45:57.923Z,3.70
2023-02-24T17:49:04.176Z,4.17
2023-02-24T17:52:07.972Z,3.88
2023-02-24T17:55:11.918Z,3.80
2023-02-24T17:58:15.133Z,3.70
2023-02-24T18:01:22.282Z,4.30
2023-02-24T18:04:25.898Z,4.37
2023-02-24T18:07:29.743Z,3.65
2023-02-24T18:10:37.766Z,4.00
2023-02-24T18:13:41.392Z,4.03
2023-02-24T18:16:44.879Z,3.60
2023-02-24T18:19:48.429Z,3.47
2023-02-24T18:22:51.820Z,4.00
2023-02-24T18:25:56.602Z,3.67
2023-02-24T18:29:00.517Z,3.85
2023-02-24T18:32:09.587Z,3.90
2023-02-24T18:35:18.068Z,3.90
2023-02-24T18:38:22.948Z,3.92
2023-02-24T18:41:27.379Z,4.32
2023-02-24T18:44:30.992Z,3.88
2023-02-24T18:47:34.817Z,4.07
2023-02-24T18:50:38.499Z,3.70
2023-02-24T18:53:42.303Z,4.00
2023-02-24T18:56:46.359Z,3.63
2023-02-24T18:59:51.861Z,3.70
2023-02-24T19:02:55.623Z,4.00
2023-02-24T19:05:59.519Z,3.80
2023-02-24T19:09:10.320Z,3.92
2023-02-24T19:12:15.534Z,3.22
2023-02-24T19:15:23.027Z,4.00
2023-02-24T19:18:26.776Z,3.38
2023-02-24T19:21:32.571Z,3.70
2023-02-24T19:24:36.463Z,3.70
2023-02-24T19:27:40.662Z,3.10
2023-02-24T19:30:44.502Z,3.67
2023-02-24T19:33:55.437Z,3.40
2023-02-24T19:36:59.417Z,3.50
2023-02-24T19:40:05.397Z,3.20
2023-02-24T19:43:10.322Z,3.58
2023-02-24T19:46:15.692Z,3.40
2023-02-24T19:49:20.197Z,3.53
2023-02-24T19:52:23.955Z,3.97
2023-02-24T19:55:28.788Z,3.38
2023-02-24T19:58:39.523Z,3.50
2023-02-24T20:01:44.059Z,3.40
2023-02-24T20:04:47.885Z,4.07
2023-02-24T20:07:51.493Z,3.83
2023-02-24T20:11:02.418Z,3.60
2023-02-24T20:14:08.834Z,3.70
2023-02-24T20:17:12.525Z,3.00
2023-02-24T20:20:22.497Z,3.70
2023-02-24T20:23:29.297Z,3.37
2023-02-24T20:26:33.317Z,3.50
2023-02-24T20:29:37.218Z,3.30
2023-02-24T20:32:41.400Z,3.63
2023-02-24T20:35:45.492Z,3.47
2023-02-24T20:38:50.855Z,3.83
2023-02-24T20:41:56.333Z,3.58
2023-02-24T20:45:00.039Z,3.58
2023-02-24T20:48:04.281Z,3.25
2023-02-24T20:51:10.607Z,3.58
2023-02-24T20:54:15.266Z,3.23
2023-02-24T20:57:18.470Z,3.30
2023-02-24T21:00:22.259Z,3.75
2023-02-24T21:03:25.808Z,3.70
2023-02-24T21:06:30.059Z,3.72
2023-02-24T21:09:37.937Z,3.30
2023-02-24T21:12:41.945Z,3.55
2023-02-24T21:15:53.210Z,4.07
2023-02-24T21:18:58.886Z,3.75
2023-02-24T21:22:02.338Z,3.40
2023-02-24T21:25:12.707Z,2.87
2023-02-24T21:28:15.750Z,3.50
2023-02-24T21:31:21.882Z,3.45
2023-02-24T21:34:25.245Z,3.83
2023-02-24T21:37:28.514Z,3.60
2023-02-24T21:40:34.945Z,3.17
2023-02-24T21:43:38.016Z,3.50
2023-02-24T21:46:42.538Z,3.88
2023-02-24T21:49:46.384Z,3.85
2023-02-24T21:52:50.415Z,3.67
2023-02-24T21:56:11.368Z,3.60
2023-02-24T21:59:14.763Z,3.55
2023-02-24T22:02:18.264Z,3.67
2023-02-24T22:05:23.405Z,3.40
2023-02-24T22:08:26.124Z,3.55
2023-02-24T22:11:31.489Z,3.23
2023-02-24T22:14:34.484Z,3.63
2023-02-24T22:17:39.657Z,3.58
2023-02-24T22:20:42.679Z,3.20
2023-02-24T22:23:47.814Z,3.55
2023-02-24T22:26:51.230Z,3.53
2023-02-24T22:29:55.194Z,3.30
2023-02-24T22:32:57.951Z,3.70
2023-02-24T22:36:06.076Z,3.35
2023-02-24T22:39:10.611Z,3.42
2023-02-24T22:42:14.544Z,3.53
2023-02-24T22:45:17.389Z,3.45
2023-02-24T22:48:20.226Z,3.53
2023-02-24T22:51:24.625Z,3.35
2023-02-24T22:54:27.410Z,3.13
2023-02-24T22:57:33.016Z,3.37
2023-02-24T23:00:44.573Z,3.10
2023-02-24T23:03:47.914Z,3.65
2023-02-24T23:06:50.707Z,3.42
2023-02-24T23:09:54.076Z,3.47
2023-02-24T23:12:57.147Z,3.60
2023-02-24T23:16:03.641Z,2.72
2023-02-24T23:19:20.355Z,3.53
2023-02-24T23:22:23.405Z,3.25
2023-02-24T23:25:26.301Z,3.47
2023-02-24T23:28:29.291Z,4.10
2023-02-24T23:31:33.455Z,3.83
2023-02-24T23:34:36.270Z,2.97
2023-02-24T23:37:39.896Z,3.00
2023-02-24T23:40:50.164Z,3.78
2023-02-24T23:43:53.534Z,3.20
2023-02-24T23:46:58.378Z,3.15
2023-02-24T23:50:01.130Z,3.35
2023-02-24T23:53:04.631Z,3.92
2023-02-24T23:56:17.926Z,3.60
2023-02-24T23:59:20.994Z,3.40
